createdAt,value
2022-09-26T00:01:43.290Z,69.26
2022-09-26T00:04:16.472Z,69.12
2022-09-26T00:06:45.110Z,69.22
2022-09-26T00:09:15.215Z,69.59
2022-09-26T00:11:44.249Z,69.48
2022-09-26T00:14:15.507Z,69.64
2022-09-26T00:16:44.118Z,69.98
2022-09-26T00:19:13.304Z,69.86
2022-09-26T00:21:42.159Z,71.27
2022-09-26T00:24:11.077Z,71.73
2022-09-26T00:26:39.929Z,72.00
2022-09-26T00:29:11.184Z,72.05
2022-09-26T00:31:42.660Z,72.83
2022-09-26T00:34:13.096Z,73.39
2022-09-26T00:36:41.619Z,73.00
2022-09-26T00:39:13.608Z,73.50
2022-09-26T00:41:43.141Z,73.80
2022-09-26T00:44:42.755Z,73.97
2022-09-26T00:47:33.448Z,74.29
2022-09-26T00:50:06.004Z,74.54
2022-09-26T00:52:39.078Z,74.37
2022-09-26T00:55:08.667Z,73.87
2022-09-26T00:57:41.662Z,73.91
2022-09-26T01:00:11.109Z,74.54
2022-09-26T01:02:40.082Z,74.66
2022-09-26T01:05:12.838Z,74.31
2022-09-26T01:07:41.497Z,74.36
2022-09-26T01:10:11.527Z,74.71
2022-09-26T01:12:40.653Z,74.67
2022-09-26T01:15:10.991Z,74.31
2022-09-26T01:17:42.391Z,74.13
2022-09-26T01:20:26.508Z,74.35
2022-09-26T01:23:37.893Z,74.11
2022-09-26T01:26:27.696Z,74.30
2022-09-26T01:29:53.140Z,74.61
2022-09-26T01:32:50.325Z,74.97
2022-09-26T01:35:36.646Z,75.01
2022-09-26T01:38:17.169Z,76.54
2022-09-26T01:41:03.037Z,76.48
2022-09-26T01:43:40.013Z,77.20
2022-09-26T01:46:24.437Z,78.25
2022-09-26T01:49:01.636Z,78.77
2022-09-26T01:51:37.101Z,79.20
2022-09-26T01:54:11.124Z,79.38
2022-09-26T01:56:42.811Z,80.14
2022-09-26T01:59:18.952Z,80.19
2022-09-26T02:01:55.720Z,80.21
2022-09-26T02:04:29.601Z,80.14
2022-09-26T02:07:01.844Z,80.09
2022-09-26T02:09:37.713Z,80.62
2022-09-26T02:12:12.867Z,81.72
2022-09-26T02:14:45.496Z,80.88
2022-09-26T02:17:18.252Z,80.45
2022-09-26T02:19:49.426Z,80.28
2022-09-26T02:22:18.868Z,80.93
2022-09-26T02:24:47.486Z,80.54
2022-09-26T02:27:16.020Z,80.50
2022-09-26T02:29:45.339Z,80.45
2022-09-26T02:32:18.380Z,80.52
2022-09-26T02:34:48.873Z,80.48
2022-09-26T02:37:20.679Z,80.36
2022-09-26T02:39:51.632Z,81.08
2022-09-26T02:42:29.116Z,81.28
2022-09-26T02:45:13.937Z,80.89
2022-09-26T02:48:04.997Z,81.06
2022-09-26T02:50:49.492Z,81.64
2022-09-26T02:53:32.404Z,81.75
2022-09-26T02:56:10.794Z,80.98
2022-09-26T02:58:51.066Z,80.70
2022-09-26T03:01:26.860Z,80.97
2022-09-26T03:04:02.947Z,80.55
2022-09-26T03:06:35.907Z,80.61
2022-09-26T03:09:06.536Z,81.01
2022-09-26T03:11:36.068Z,81.68
2022-09-26T03:14:04.838Z,81.72
2022-09-26T03:16:37.766Z,81.01
2022-09-26T03:19:11.519Z,81.10
2022-09-26T03:21:40.342Z,80.92
2022-09-26T03:24:09.300Z,80.87
2022-09-26T03:26:41.223Z,81.94
2022-09-26T03:29:09.884Z,82.01
2022-09-26T03:31:38.777Z,81.98
2022-09-26T03:34:08.361Z,82.68
2022-09-26T03:36:39.936Z,82.19
2022-09-26T03:39:10.160Z,82.17
2022-09-26T03:41:47.903Z,82.99
2022-09-26T03:44:28.103Z,83.60
2022-09-26T03:47:26.071Z,83.42
2022-09-26T03:49:54.844Z,82.94
2022-09-26T03:52:24.457Z,83.70
2022-09-26T03:54:53.239Z,84.24
2022-09-26T03:57:22.058Z,83.65
2022-09-26T03:59:57.715Z,85.13
2022-09-26T04:02:28.542Z,84.99
2022-09-26T04:05:06.235Z,84.16
2022-09-26T04:07:34.792Z,83.34
2022-09-26T04:10:04.030Z,84.97
2022-09-26T04:12:33.526Z,86.41
2022-09-26T04:15:03.075Z,85.87
2022-09-26T04:17:33.178Z,85.32
2022-09-26T04:20:03.528Z,84.98
2022-09-26T04:22:33.385Z,84.43
2022-09-26T04:25:01.940Z,84.27
2022-09-26T04:27:31.277Z,84.71
2022-09-26T04:29:59.777Z,86.75
2022-09-26T04:32:40.425Z,86.59
2022-09-26T04:35:28.863Z,87.43
2022-09-26T04:37:57.519Z,87.59
2022-09-26T04:40:26.308Z,87.55
2022-09-26T04:43:02.496Z,88.26
2022-09-26T04:45:30.947Z,88.39
2022-09-26T04:47:59.821Z,89.29
2022-09-26T04:50:28.645Z,89.34
2022-09-26T04:53:08.401Z,88.70
2022-09-26T04:55:45.224Z,88.37
2022-09-26T04:58:15.396Z,87.15
2022-09-26T05:00:47.236Z,86.91
2022-09-26T05:03:18.377Z,87.16
2022-09-26T05:05:49.373Z,88.31
2022-09-26T05:08:17.822Z,88.38
2022-09-26T05:10:52.843Z,88.30
2022-09-26T05:13:21.533Z,88.40
2022-09-26T05:15:53.566Z,88.60
2022-09-26T05:18:22.930Z,87.10
2022-09-26T05:20:52.436Z,87.68
2022-09-26T05:23:45.278Z,87.80
2022-09-26T05:26:20.001Z,87.79
2022-09-26T05:28:51.529Z,87.30
2022-09-26T05:31:22.076Z,86.74
2022-09-26T05:33:51.817Z,86.70
2022-09-26T05:36:20.390Z,87.35
2022-09-26T05:38:48.807Z,88.02
2022-09-26T05:41:19.287Z,88.80
2022-09-26T05:43:47.792Z,89.21
2022-09-26T05:46:16.564Z,88.13
2022-09-26T05:48:48.763Z,86.86
2022-09-26T05:51:23.760Z,86.54
2022-09-26T05:53:52.524Z,86.54
2022-09-26T05:56:23.045Z,86.63
2022-09-26T05:59:18.247Z,86.26
2022-09-26T06:02:06.388Z,86.27
2022-09-26T06:05:04.958Z,86.70
2022-09-26T06:08:02.509Z,87.19
2022-09-26T06:10:38.438Z,87.41
2022-09-26T06:13:07.558Z,87.54
2022-09-26T06:15:43.913Z,86.50
2022-09-26T06:18:12.769Z,86.57
2022-09-26T06:20:41.148Z,86.19
2022-09-26T06:23:09.714Z,85.72
2022-09-26T06:25:39.862Z,86.91
2022-09-26T06:28:08.597Z,87.32
2022-09-26T06:30:38.182Z,88.31
2022-09-26T06:33:15.283Z,89.44
2022-09-26T06:36:03.328Z,89.68
2022-09-26T06:38:37.794Z,89.60
2022-09-26T06:41:09.974Z,88.91
2022-09-26T06:43:39.096Z,89.02
2022-09-26T06:46:10.440Z,88.81
2022-09-26T06:48:50.252Z,89.70
2022-09-26T06:51:48.511Z,90.35
2022-09-26T06:54:18.512Z,89.83
2022-09-26T06:56:47.021Z,89.25
2022-09-26T06:59:16.284Z,89.92
2022-09-26T07:01:52.458Z,89.47
2022-09-26T07:04:56.499Z,89.79
2022-09-26T07:07:41.777Z,90.41
2022-09-26T07:10:14.174Z,90.05
2022-09-26T07:13:16.461Z,89.99
2022-09-26T07:15:46.555Z,89.99
2022-09-26T07:18:37.330Z,89.16
2022-09-26T07:21:26.038Z,88.87
2022-09-26T07:24:13.734Z,89.65
2022-09-26T07:26:43.301Z,90.00
2022-09-26T07:29:12.230Z,90.46
2022-09-26T07:31:41.006Z,90.47
2022-09-26T07:34:24.482Z,89.47
2022-09-26T07:36:53.451Z,88.54
2022-09-26T07:39:22.587Z,87.84
2022-09-26T07:41:51.516Z,87.17
2022-09-26T07:45:02.186Z,87.24
2022-09-26T07:47:26.325Z,86.84
2022-09-26T07:50:15.246Z,86.00
2022-09-26T07:53:06.334Z,86.31
2022-09-26T07:55:55.181Z,86.09
2022-09-26T07:58:45.750Z,86.00
2022-09-26T08:01:36.947Z,85.63
2022-09-26T08:04:24.204Z,85.00
2022-09-26T08:06:53.625Z,84.27
2022-09-26T08:09:22.076Z,83.56
2022-09-26T08:12:09.371Z,83.33
2022-09-26T08:14:56.643Z,82.68
2022-09-26T08:17:42.886Z,83.04
2022-09-26T08:20:12.936Z,82.63
2022-09-26T08:22:42.663Z,82.67
2022-09-26T08:25:13.565Z,82.21
2022-09-26T08:27:52.558Z,82.28
2022-09-26T08:30:24.605Z,82.34
2022-09-26T08:32:58.181Z,81.48
2022-09-26T08:35:27.278Z,81.28
2022-09-26T08:38:17.168Z,81.15
2022-09-26T08:40:54.779Z,81.28
2022-09-26T08:43:55.730Z,81.11
2022-09-26T08:47:00.942Z,81.43
2022-09-26T08:50:11.036Z,80.64
2022-09-26T08:52:42.156Z,81.30
2022-09-26T08:55:15.770Z,80.75
2022-09-26T08:57:48.999Z,79.99
2022-09-26T09:00:20.859Z,79.70
2022-09-26T09:03:10.667Z,79.95
2022-09-26T09:05:43.023Z,79.79
2022-09-26T09:08:16.679Z,79.67
2022-09-26T09:11:14.874Z,80.11
2022-09-26T09:13:56.698Z,80.00
2022-09-26T09:16:59.208Z,79.18
2022-09-26T09:20:02.755Z,79.12
2022-09-26T09:23:08.443Z,79.04
2022-09-26T09:25:47.468Z,78.76
2022-09-26T09:28:32.617Z,77.54
2022-09-26T09:31:05.871Z,77.47
2022-09-26T09:33:59.851Z,77.87
2022-09-26T09:36:42.945Z,78.58
2022-09-26T09:39:32.929Z,77.63
2022-09-26T09:42:16.408Z,77.64
2022-09-26T09:44:48.818Z,77.62
2022-09-26T09:47:20.420Z,78.22
2022-09-26T09:49:49.909Z,79.21
2022-09-26T09:52:31.109Z,79.39
2022-09-26T09:55:16.092Z,79.35
2022-09-26T09:58:02.245Z,78.66
2022-09-26T10:00:35.749Z,77.90
2022-09-26T10:03:20.336Z,77.42
2022-09-26T10:05:53.005Z,75.55
2022-09-26T10:08:31.010Z,73.91
2022-09-26T10:11:30.128Z,73.09
2022-09-26T10:14:04.515Z,72.52
2022-09-26T10:17:30.447Z,72.10
2022-09-26T10:20:37.367Z,69.45
2022-09-26T10:23:18.869Z,68.91
2022-09-26T10:25:49.999Z,67.09
2022-09-26T10:28:29.333Z,66.16
2022-09-26T10:31:04.378Z,67.23
2022-09-26T10:33:47.040Z,67.59
2022-09-26T10:36:19.434Z,67.89
2022-09-26T10:39:14.383Z,68.03
2022-09-26T10:41:45.533Z,67.64
2022-09-26T10:44:26.271Z,66.94
2022-09-26T10:47:12.989Z,67.01
2022-09-26T10:50:06.526Z,66.73
2022-09-26T10:53:14.402Z,66.29
2022-09-26T10:55:47.859Z,66.18
2022-09-26T10:58:22.191Z,66.01
2022-09-26T11:00:53.485Z,66.01
2022-09-26T11:03:32.872Z,65.26
2022-09-26T11:06:35.476Z,63.80
2022-09-26T11:09:20.613Z,64.02
2022-09-26T11:12:24.568Z,64.07
2022-09-26T11:14:58.182Z,63.55
2022-09-26T11:17:46.739Z,63.17
2022-09-26T11:20:27.335Z,63.42
2022-09-26T11:23:07.141Z,62.43
2022-09-26T11:25:57.968Z,61.92
2022-09-26T11:28:33.622Z,61.30
2022-09-26T11:31:24.276Z,62.19
2022-09-26T11:34:06.537Z,62.41
2022-09-26T11:37:21.442Z,61.94
2022-09-26T11:40:09.288Z,62.56
2022-09-26T11:42:54.169Z,63.52
2022-09-26T11:45:38.619Z,64.43
2022-09-26T11:48:52.533Z,64.23
2022-09-26T11:52:04.282Z,63.23
2022-09-26T11:54:46.657Z,64.00
2022-09-26T11:57:34.375Z,64.96
2022-09-26T12:00:15.586Z,66.24
2022-09-26T12:03:13.298Z,66.83
2022-09-26T12:05:52.859Z,66.87
2022-09-26T12:08:31.565Z,65.76
2022-09-26T12:11:14.752Z,65.76
2022-09-26T12:13:52.625Z,66.06
2022-09-26T12:16:26.340Z,66.24
2022-09-26T12:19:04.521Z,66.79
2022-09-26T12:22:05.507Z,67.60
2022-09-26T12:24:40.774Z,67.94
2022-09-26T12:27:16.654Z,68.49
2022-09-26T12:29:54.513Z,69.35
2022-09-26T12:32:42.228Z,71.46
2022-09-26T12:35:29.286Z,73.66
2022-09-26T12:38:32.121Z,75.58
2022-09-26T12:41:24.439Z,77.01
2022-09-26T12:44:24.430Z,78.36
2022-09-26T12:47:18.626Z,78.64
2022-09-26T12:50:30.368Z,79.99
2022-09-26T12:53:18.357Z,81.29
2022-09-26T12:55:58.289Z,81.20
2022-09-26T12:58:39.814Z,81.51
2022-09-26T13:01:28.146Z,81.24
2022-09-26T13:04:15.247Z,80.80
2022-09-26T13:07:18.895Z,80.43
2022-09-26T13:10:11.225Z,80.49
2022-09-26T13:13:11.542Z,80.94
2022-09-26T13:15:52.196Z,80.67
2022-09-26T13:18:27.023Z,79.53
2022-09-26T13:21:02.821Z,77.82
2022-09-26T13:23:37.613Z,77.31
2022-09-26T13:26:12.217Z,76.68
2022-09-26T13:29:06.424Z,75.38
2022-09-26T13:31:39.550Z,73.67
2022-09-26T13:34:16.256Z,72.81
2022-09-26T13:36:45.737Z,70.49
2022-09-26T13:39:18.287Z,69.15
2022-09-26T13:41:53.265Z,68.96
2022-09-26T13:44:33.021Z,68.53
2022-09-26T13:47:12.613Z,68.13
2022-09-26T13:49:57.435Z,68.45
2022-09-26T13:52:40.331Z,67.50
2022-09-26T13:55:18.470Z,66.55
2022-09-26T13:57:51.013Z,65.02
2022-09-26T14:00:40.047Z,64.04
2022-09-26T14:03:49.734Z,63.23
2022-09-26T14:06:33.170Z,62.32
2022-09-26T14:09:24.178Z,62.06
2022-09-26T14:12:19.055Z,61.24
2022-09-26T14:15:20.133Z,61.71
2022-09-26T14:18:07.156Z,59.70
2022-09-26T14:20:49.946Z,58.55
2022-09-26T14:23:49.475Z,57.86
2022-09-26T14:26:21.521Z,57.47
2022-09-26T14:28:53.324Z,57.90
2022-09-26T14:31:42.063Z,58.36
2022-09-26T14:34:22.032Z,59.14
2022-09-26T14:36:52.736Z,59.34
2022-09-26T14:39:32.978Z,57.82
2022-09-26T14:42:10.591Z,57.12
2022-09-26T14:44:45.868Z,58.12
2022-09-26T14:47:15.855Z,56.68
2022-09-26T14:49:54.026Z,55.55
2022-09-26T14:52:24.572Z,55.62
2022-09-26T14:54:58.219Z,55.92
2022-09-26T14:57:30.935Z,54.98
2022-09-26T15:00:01.049Z,53.78
2022-09-26T15:02:41.485Z,52.83
2022-09-26T15:05:25.418Z,53.82
2022-09-26T15:07:56.983Z,53.70
2022-09-26T15:10:37.584Z,53.78
2022-09-26T15:13:19.339Z,53.69
2022-09-26T15:15:55.182Z,53.44
2022-09-26T15:18:38.645Z,54.48
2022-09-26T15:21:17.602Z,54.92
2022-09-26T15:23:49.652Z,55.16
2022-09-26T15:26:21.679Z,56.12
2022-09-26T15:28:53.300Z,57.47
2022-09-26T15:31:26.104Z,57.83
2022-09-26T15:34:03.641Z,58.85
2022-09-26T15:36:34.892Z,59.39
2022-09-26T15:39:24.128Z,60.36
2022-09-26T15:42:11.530Z,61.52
2022-09-26T15:44:48.052Z,61.80
2022-09-26T15:47:39.062Z,62.71
2022-09-26T15:50:12.640Z,63.21
2022-09-26T15:52:44.380Z,63.56
2022-09-26T15:55:20.667Z,63.60
2022-09-26T15:57:53.196Z,64.23
2022-09-26T16:00:21.842Z,64.26
2022-09-26T16:02:51.700Z,63.91
2022-09-26T16:05:23.113Z,64.10
2022-09-26T16:07:52.505Z,64.24
2022-09-26T16:10:24.733Z,64.34
2022-09-26T16:12:53.377Z,65.18
2022-09-26T16:15:27.393Z,65.21
2022-09-26T16:17:57.954Z,65.32
2022-09-26T16:20:30.224Z,65.92
2022-09-26T16:23:05.097Z,65.82
2022-09-26T16:25:52.765Z,66.13
2022-09-26T16:28:41.785Z,65.97
2022-09-26T16:31:23.723Z,66.43
2022-09-26T16:33:54.430Z,66.70
2022-09-26T16:36:25.457Z,66.87
2022-09-26T16:38:57.161Z,67.08
2022-09-26T16:44:31.868Z,67.91
2022-09-26T16:47:05.980Z,68.31
2022-09-26T16:49:45.157Z,68.43
2022-09-26T16:52:36.724Z,68.54
2022-09-26T16:55:08.615Z,68.95
2022-09-26T16:57:40.382Z,69.42
2022-09-26T17:00:36.525Z,69.74
2022-09-26T17:03:20.733Z,69.93
2022-09-26T17:05:51.123Z,70.10
2022-09-26T17:08:21.405Z,70.24
2022-09-26T17:10:49.912Z,70.00
2022-09-26T17:13:22.229Z,69.71
2022-09-26T17:15:54.001Z,70.01
2022-09-26T17:18:28.565Z,70.48
2022-09-26T17:20:58.523Z,71.31
2022-09-26T17:23:40.029Z,71.55
2022-09-26T17:26:16.063Z,72.05
2022-09-26T17:28:45.535Z,72.04
2022-09-26T17:31:18.872Z,72.40
2022-09-26T17:33:49.076Z,72.67
2022-09-26T17:36:22.584Z,72.80
2022-09-26T17:38:55.518Z,72.77
2022-09-26T17:41:28.968Z,73.89
2022-09-26T17:43:59.608Z,75.40
2022-09-26T17:46:29.025Z,75.54
2022-09-26T17:48:58.652Z,75.67
2022-09-26T17:51:30.393Z,75.56
2022-09-26T17:53:59.280Z,76.38
2022-09-26T17:56:28.065Z,76.82
2022-09-26T17:58:59.739Z,76.81
2022-09-26T18:01:33.661Z,77.16
2022-09-26T18:04:12.036Z,76.62
2022-09-26T18:06:42.374Z,76.86
2022-09-26T18:09:15.974Z,76.97
2022-09-26T18:11:53.608Z,77.00
2022-09-26T18:14:23.038Z,77.10
2022-09-26T18:16:51.614Z,77.53
2022-09-26T18:19:21.094Z,77.73
2022-09-26T18:21:53.793Z,77.95
2022-09-26T18:24:22.503Z,78.20
2022-09-26T18:26:56.495Z,77.97
2022-09-26T18:29:31.412Z,78.52
2022-09-26T18:32:00.821Z,78.48
2022-09-26T18:34:30.135Z,78.74
2022-09-26T18:37:00.953Z,79.14
2022-09-26T18:39:30.604Z,79.54
2022-09-26T18:42:04.407Z,79.58
2022-09-26T18:44:34.559Z,79.43
2022-09-26T18:47:07.203Z,79.54
2022-09-26T18:49:37.574Z,79.46
2022-09-26T18:52:11.432Z,79.27
2022-09-26T18:54:44.337Z,79.26
2022-09-26T18:57:32.165Z,79.63
2022-09-26T19:00:02.052Z,79.73
2022-09-26T19:02:37.602Z,79.61
2022-09-26T19:05:14.169Z,80.22
2022-09-26T19:07:44.326Z,80.32
2022-09-26T19:10:15.905Z,81.03
2022-09-26T19:12:44.672Z,81.24
2022-09-26T19:15:17.157Z,80.74
2022-09-26T19:17:46.020Z,80.82
2022-09-26T19:20:14.793Z,80.74
2022-09-26T19:22:43.370Z,81.11
2022-09-26T19:25:11.691Z,80.29
2022-09-26T19:27:45.576Z,80.29
2022-09-26T19:30:17.482Z,80.92
2022-09-26T19:32:49.080Z,81.00
2022-09-26T19:35:23.831Z,80.73
2022-09-26T19:37:53.320Z,80.51
2022-09-26T19:40:23.646Z,81.39
2022-09-26T19:42:53.180Z,81.60
2022-09-26T19:45:22.035Z,81.25
2022-09-26T19:47:53.550Z,81.18
2022-09-26T19:50:25.178Z,81.00
2022-09-26T19:52:55.978Z,81.35
2022-09-26T19:55:27.819Z,81.51
2022-09-26T19:58:01.155Z,82.01
2022-09-26T20:00:30.427Z,82.16
2022-09-26T20:02:58.942Z,82.38
2022-09-26T20:05:27.245Z,82.81
2022-09-26T20:07:55.782Z,82.81
2022-09-26T20:10:24.843Z,83.04
2022-09-26T20:12:53.989Z,83.32
2022-09-26T20:15:23.471Z,83.79
2022-09-26T20:17:54.416Z,83.62
2022-09-26T20:20:24.396Z,83.96
2022-09-26T20:22:55.114Z,84.08
2022-09-26T20:25:27.293Z,84.21
2022-09-26T20:27:57.641Z,84.81
2022-09-26T20:30:45.504Z,85.59
2022-09-26T20:33:15.280Z,85.08
2022-09-26T20:35:47.249Z,85.79
2022-09-26T20:38:25.945Z,87.24
2022-09-26T20:40:59.385Z,86.90
2022-09-26T20:43:33.382Z,86.04
2022-09-26T20:46:10.924Z,85.57
2022-09-26T20:48:42.457Z,85.33
2022-09-26T20:51:18.579Z,85.61
2022-09-26T20:53:47.213Z,85.90
2022-09-26T20:56:16.752Z,86.42
2022-09-26T20:58:45.255Z,86.95
2022-09-26T21:01:14.874Z,87.31
2022-09-26T21:03:46.566Z,86.82
2022-09-26T21:06:18.957Z,86.67
2022-09-26T21:08:47.965Z,86.79
2022-09-26T21:11:18.865Z,86.69
2022-09-26T21:13:47.957Z,86.69
2022-09-26T21:16:19.573Z,87.15
2022-09-26T21:18:50.587Z,87.05
2022-09-26T21:21:23.017Z,87.28
2022-09-26T21:24:15.858Z,87.77
2022-09-26T21:26:44.510Z,87.98
2022-09-26T21:29:16.511Z,88.59
2022-09-26T21:31:48.424Z,88.87
2022-09-26T21:34:21.481Z,88.32
2022-09-26T21:36:52.092Z,88.02
2022-09-26T21:39:21.103Z,87.99
2022-09-26T21:41:53.682Z,88.08
2022-09-26T21:44:24.083Z,88.07
2022-09-26T21:46:52.758Z,89.21
2022-09-26T21:49:21.038Z,90.03
2022-09-26T21:51:54.766Z,89.76
2022-09-26T21:54:27.241Z,89.86
2022-09-26T21:57:01.564Z,90.02
2022-09-26T21:59:30.763Z,89.65
2022-09-26T22:01:59.319Z,90.03
2022-09-26T22:04:28.275Z,89.35
2022-09-26T22:06:56.654Z,89.69
2022-09-26T22:09:25.066Z,89.82
2022-09-26T22:11:53.352Z,90.31
2022-09-26T22:14:21.608Z,91.74
2022-09-26T22:16:49.944Z,91.42
2022-09-26T22:19:18.275Z,91.65
2022-09-26T22:21:46.591Z,91.57
2022-09-26T22:24:14.850Z,91.04
2022-09-26T22:26:44.173Z,91.48
2022-09-26T22:29:12.786Z,91.23
2022-09-26T22:31:41.881Z,91.29
2022-09-26T22:34:10.537Z,91.53
2022-09-26T22:36:38.836Z,91.50
2022-09-26T22:39:07.218Z,91.50
2022-09-26T22:41:36.128Z,91.91
2022-09-26T22:44:04.387Z,91.95
2022-09-26T22:46:34.395Z,91.50
2022-09-26T22:49:02.923Z,91.02
2022-09-26T22:51:31.279Z,90.37
2022-09-26T22:53:59.653Z,90.77
2022-09-26T22:56:27.921Z,91.49
2022-09-26T22:58:56.231Z,91.47
2022-09-26T23:01:27.281Z,91.58
2022-09-26T23:03:57.861Z,91.47
2022-09-26T23:06:27.248Z,90.99
2022-09-26T23:08:56.070Z,91.32
2022-09-26T23:11:24.494Z,92.12
2022-09-26T23:13:53.618Z,91.87
2022-09-26T23:16:23.893Z,91.28
2022-09-26T23:18:53.146Z,90.91
2022-09-26T23:21:23.074Z,90.59
2022-09-26T23:23:54.182Z,90.70
2022-09-26T23:26:25.137Z,91.07
2022-09-26T23:28:55.119Z,93.84
2022-09-26T23:31:24.711Z,95.21
2022-09-26T23:33:53.661Z,95.17
2022-09-26T23:36:22.609Z,95.50
2022-09-26T23:38:50.901Z,95.96
2022-09-26T23:41:19.688Z,95.94
2022-09-26T23:43:48.102Z,95.55
2022-09-26T23:46:16.893Z,95.55
2022-09-26T23:48:46.464Z,95.18
2022-09-26T23:51:14.881Z,95.45
2022-09-26T23:53:43.340Z,95.33
2022-09-26T23:56:13.503Z,95.12
2022-09-26T23:58:42.398Z,95.26
